createdAt,value
2023-04-05T00:02:29.100Z,7.80
2023-04-05T00:07:35.486Z,7.67
2023-04-05T00:12:32.707Z,7.56
2023-04-05T00:17:35.227Z,7.78
2023-04-05T00:22:35.583Z,7.71
2023-04-05T00:27:35.517Z,7.60
2023-04-05T00:32:35.304Z,7.63
2023-04-05T00:37:40.617Z,7.77
2023-04-05T00:42:37.554Z,7.74
2023-04-05T00:47:34.685Z,7.85
2023-04-05T00:52:33.330Z,7.72
2023-04-05T00:57:31.623Z,7.53
2023-04-05T01:02:33.340Z,7.97
2023-04-05T01:07:43.400Z,7.79
2023-04-05T01:12:42.097Z,7.97
2023-04-05T01:17:39.227Z,7.93
2023-04-05T01:23:17.084Z,7.97
2023-04-05T01:28:46.847Z,7.95
2023-04-05T01:33:55.382Z,7.82
2023-04-05T01:38:54.085Z,8.05
2023-04-05T01:43:51.112Z,7.98
2023-04-05T01:48:48.781Z,7.93
2023-04-05T01:53:46.028Z,7.84
2023-04-05T01:58:44.692Z,7.82
2023-04-05T02:03:42.133Z,7.87
2023-04-05T02:08:39.913Z,7.97
2023-04-05T02:13:37.647Z,7.93
2023-04-05T02:18:34.703Z,7.92
2023-04-05T02:23:33.108Z,8.02
2023-04-05T02:28:31.087Z,7.96
2023-04-05T02:33:29.161Z,7.78
2023-04-05T02:38:26.117Z,7.83
2023-04-05T02:43:23.964Z,7.74
2023-04-05T02:48:21.627Z,7.90
2023-04-05T02:53:19.197Z,7.88
2023-04-05T02:58:23.898Z,7.80
2023-04-05T03:03:22.572Z,7.33
2023-04-05T03:08:23.191Z,7.43
2023-04-05T03:13:30.109Z,7.63
2023-04-05T03:18:29.465Z,7.34
2023-04-05T03:23:33.445Z,7.67
2023-04-05T03:28:32.670Z,7.60
2023-04-05T03:33:34.206Z,7.63
2023-04-05T03:38:32.299Z,7.60
2023-04-05T03:43:43.499Z,7.50
2023-04-05T03:48:46.783Z,7.55
2023-04-05T03:53:44.143Z,7.38
2023-04-05T03:58:41.687Z,7.04
2023-04-05T04:03:42.571Z,7.53
2023-04-05T04:08:40.455Z,7.24
2023-04-05T04:13:38.603Z,7.51
2023-04-05T04:18:54.646Z,7.55
2023-04-05T04:24:18.065Z,7.42
2023-04-05T04:29:40.101Z,7.38
2023-04-05T04:35:00.011Z,7.53
2023-04-05T04:40:25.347Z,7.66
2023-04-05T04:45:37.037Z,7.68
2023-04-05T04:50:51.918Z,7.40
2023-04-05T04:55:50.841Z,7.59
2023-04-05T05:00:47.954Z,7.40
2023-04-05T05:05:50.263Z,7.69
2023-04-05T05:10:53.692Z,7.70
2023-04-05T05:15:52.402Z,7.70
2023-04-05T05:20:52.748Z,7.28
2023-04-05T05:25:49.951Z,7.61
2023-04-05T05:30:50.414Z,7.83
2023-04-05T05:35:48.568Z,7.52
2023-04-05T05:40:45.630Z,7.98
2023-04-05T05:45:42.475Z,7.90
2023-04-05T05:50:41.466Z,8.14
2023-04-05T05:55:38.293Z,8.20
2023-04-05T06:00:35.767Z,8.06
2023-04-05T06:05:32.524Z,8.20
2023-04-05T06:10:30.602Z,8.33
2023-04-05T06:15:27.410Z,8.46
2023-04-05T06:20:24.186Z,8.64
2023-04-05T06:25:20.984Z,8.60
2023-04-05T06:30:18.701Z,8.84
2023-04-05T06:35:17.366Z,8.95
2023-04-05T06:40:14.322Z,8.73
2023-04-05T06:45:11.943Z,9.09
2023-04-05T06:50:09.673Z,9.14
2023-04-05T06:55:07.584Z,9.24
2023-04-05T07:00:11.202Z,9.57
2023-04-05T07:05:08.233Z,9.88
2023-04-05T07:10:06.949Z,9.84
2023-04-05T07:15:04.748Z,9.96
2023-04-05T07:20:06.235Z,10.23
2023-04-05T07:25:03.216Z,10.34
2023-04-05T07:30:00.869Z,10.66
2023-04-05T07:34:57.647Z,10.57
2023-04-05T07:39:54.349Z,10.86
2023-04-05T07:44:51.210Z,10.79
2023-04-05T07:49:51.381Z,11.06
2023-04-05T07:54:49.361Z,11.15
2023-04-05T07:59:47.361Z,11.40
2023-04-05T08:04:44.131Z,11.66
2023-04-05T08:09:41.903Z,11.88
2023-04-05T08:14:38.649Z,12.08
2023-04-05T08:19:35.385Z,12.20
2023-04-05T08:24:32.081Z,12.23
2023-04-05T08:29:30.075Z,11.99
2023-04-05T08:34:27.025Z,12.04
2023-04-05T08:39:23.749Z,11.97
2023-04-05T08:44:25.186Z,11.77
2023-04-05T08:49:23.601Z,11.84
2023-04-05T08:54:22.343Z,11.93
2023-04-05T08:59:19.880Z,11.92
2023-04-05T09:04:21.043Z,11.78
2023-04-05T09:09:20.997Z,11.91
2023-04-05T09:14:20.128Z,12.19
2023-04-05T09:19:16.890Z,12.44
2023-04-05T09:24:13.578Z,12.95
2023-04-05T09:29:29.320Z,13.34
2023-04-05T09:34:25.789Z,14.05
2023-04-05T09:39:28.454Z,14.60
2023-04-05T09:44:26.463Z,15.07
2023-04-05T09:49:32.318Z,15.15
2023-04-05T09:54:29.778Z,15.92
2023-04-05T09:59:27.520Z,16.14
2023-04-05T10:04:24.764Z,16.08
2023-04-05T10:09:22.097Z,16.25
2023-04-05T10:14:19.940Z,16.60
2023-04-05T10:19:26.538Z,16.92
2023-04-05T10:24:34.168Z,17.40
2023-04-05T10:29:38.212Z,17.37
2023-04-05T10:34:42.022Z,17.44
2023-04-05T10:39:45.342Z,17.55
2023-04-05T10:44:45.790Z,17.67
2023-04-05T10:49:46.975Z,17.52
2023-04-05T10:54:44.976Z,17.42
2023-04-05T10:59:44.058Z,17.25
2023-04-05T11:04:42.118Z,17.05
2023-04-05T11:09:50.233Z,16.72
2023-04-05T11:14:47.086Z,16.51
2023-04-05T11:19:51.938Z,16.22
2023-04-05T11:24:55.799Z,16.23
2023-04-05T11:29:53.881Z,16.34
2023-04-05T11:35:01.032Z,16.39
2023-04-05T11:40:30.021Z,16.38
2023-04-05T11:45:27.162Z,16.14
2023-04-05T11:50:24.829Z,16.17
2023-04-05T11:55:26.679Z,16.08
2023-04-05T12:00:24.392Z,15.79
2023-04-05T12:05:21.382Z,15.78
2023-04-05T12:10:18.532Z,15.51
2023-04-05T12:15:20.812Z,15.62
2023-04-05T12:20:20.525Z,15.58
2023-04-05T12:25:18.816Z,15.44
2023-04-05T12:30:16.911Z,15.42
2023-04-05T12:35:16.960Z,15.36
2023-04-05T12:40:20.206Z,15.15
2023-04-05T12:45:17.998Z,15.05
2023-04-05T12:50:18.345Z,14.38
2023-04-05T12:55:16.230Z,14.51
2023-04-05T13:00:14.448Z,14.22
2023-04-05T13:05:11.502Z,14.40
2023-04-05T13:10:10.567Z,14.33
2023-04-05T13:15:19.025Z,13.82
2023-04-05T13:20:21.460Z,14.29
2023-04-05T13:25:18.386Z,14.19
2023-04-05T13:30:16.416Z,14.16
2023-04-05T13:35:13.554Z,14.16
2023-04-05T13:40:11.081Z,14.06
2023-04-05T13:45:09.112Z,14.02
2023-04-05T13:50:10.883Z,13.99
2023-04-05T13:55:08.330Z,13.91
2023-04-05T14:00:06.787Z,13.82
2023-04-05T14:05:10.105Z,13.77
2023-04-05T14:10:08.246Z,13.78
2023-04-05T14:15:07.787Z,13.60
2023-04-05T14:20:07.680Z,13.53
2023-04-05T14:25:07.705Z,13.66
2023-04-05T14:30:06.111Z,13.59
2023-04-05T14:35:06.764Z,13.08
2023-04-05T14:40:04.192Z,13.37
2023-04-05T14:45:02.259Z,12.97
2023-04-05T14:50:01.297Z,12.97
2023-04-05T14:55:02.713Z,12.73
2023-04-05T15:00:05.726Z,12.77
2023-04-05T15:05:03.709Z,12.74
2023-04-05T15:15:56.170Z,12.10
2023-04-05T15:20:53.897Z,12.56
2023-04-05T15:25:56.258Z,12.60
2023-04-05T15:31:01.699Z,12.41
2023-04-05T15:35:58.769Z,12.52
2023-04-05T15:40:57.311Z,12.41
2023-04-05T15:45:56.006Z,11.98
2023-04-05T15:50:53.099Z,11.94
2023-04-05T15:55:52.662Z,12.15
2023-04-05T16:00:53.204Z,11.78
2023-04-05T16:05:59.830Z,11.65
2023-04-05T16:10:58.622Z,11.65
2023-04-05T16:15:55.752Z,11.52
2023-04-05T16:20:57.024Z,11.17
2023-04-05T16:25:59.310Z,11.28
2023-04-05T16:31:11.031Z,11.47
2023-04-05T16:36:09.043Z,11.18
2023-04-05T16:41:06.104Z,11.26
2023-04-05T16:46:03.248Z,11.12
2023-04-05T16:51:00.826Z,10.46
2023-04-05T16:55:59.389Z,10.49
2023-04-05T17:01:02.118Z,10.82
2023-04-05T17:06:02.321Z,10.42
2023-04-05T17:11:03.420Z,10.49
2023-04-05T17:16:01.480Z,10.41
2023-04-05T17:21:01.534Z,10.41
2023-04-05T17:26:03.256Z,10.28
2023-04-05T17:31:14.802Z,10.42
2023-04-05T17:36:14.646Z,10.27
2023-04-05T17:41:12.811Z,9.98
2023-04-05T17:46:13.453Z,9.56
2023-04-05T17:51:10.864Z,9.72
2023-04-05T17:56:09.059Z,9.49
2023-04-05T18:01:06.932Z,9.90
2023-04-05T18:06:05.197Z,9.76
2023-04-05T18:11:02.277Z,9.90
2023-04-05T18:15:59.614Z,9.85
2023-04-05T18:21:01.355Z,9.79
2023-04-05T18:25:58.458Z,9.76
2023-04-05T18:30:56.594Z,9.57
2023-04-05T18:35:56.807Z,9.55
2023-04-05T18:41:02.840Z,9.51
2023-04-05T18:46:01.850Z,8.81
2023-04-05T18:51:00.247Z,9.17
2023-04-05T18:56:01.503Z,9.48
2023-04-05T19:01:04.399Z,9.17
2023-04-05T19:06:01.822Z,9.29
2023-04-05T19:11:00.534Z,9.04
2023-04-05T19:15:57.782Z,8.86
2023-04-05T19:20:58.845Z,8.95
2023-04-05T19:25:57.201Z,9.01
2023-04-05T19:30:55.263Z,8.80
2023-04-05T19:35:54.875Z,8.94
2023-04-05T19:40:52.342Z,8.38
2023-04-05T19:45:52.417Z,8.63
2023-04-05T19:50:55.683Z,8.70
2023-04-05T19:55:56.741Z,8.81
2023-04-05T20:00:54.806Z,8.79
2023-04-05T20:06:02.335Z,8.87
2023-04-05T20:10:59.713Z,8.63
2023-04-05T20:15:56.715Z,8.31
2023-04-05T20:20:54.680Z,8.73
2023-04-05T20:25:52.827Z,8.78
2023-04-05T20:30:50.743Z,8.63
2023-04-05T20:35:47.765Z,8.74
2023-04-05T20:40:44.967Z,8.65
2023-04-05T20:45:43.099Z,8.69
2023-04-05T20:50:40.657Z,8.67
2023-04-05T20:55:37.852Z,8.40
2023-04-05T21:00:35.001Z,8.63
2023-04-05T21:05:32.574Z,8.54
2023-04-05T21:10:29.799Z,8.53
2023-04-05T21:15:30.555Z,8.02
2023-04-05T21:20:30.392Z,8.58
2023-04-05T21:25:28.013Z,8.47
2023-04-05T21:30:25.020Z,8.51
2023-04-05T21:35:22.044Z,8.14
2023-04-05T21:40:19.160Z,8.34
2023-04-05T21:45:16.902Z,8.25
2023-04-05T21:50:14.555Z,8.21
2023-04-05T21:55:11.982Z,7.96
2023-04-05T22:00:11.203Z,7.61
2023-04-05T22:05:14.189Z,7.69
2023-04-05T22:10:12.692Z,7.76
2023-04-05T22:15:10.456Z,7.69
2023-04-05T22:20:08.486Z,7.35
2023-04-05T22:25:08.422Z,7.34
2023-04-05T22:30:06.463Z,7.59
2023-04-05T22:35:03.794Z,7.70
2023-04-05T22:40:01.150Z,7.59
2023-04-05T22:44:59.185Z,7.70
2023-04-05T22:49:56.507Z,7.83
2023-04-05T22:54:53.674Z,7.93
2023-04-05T22:59:50.699Z,7.97
2023-04-05T23:04:48.501Z,7.79
2023-04-05T23:09:45.482Z,8.00
2023-04-05T23:14:42.562Z,8.02
2023-04-05T23:19:39.558Z,8.02
2023-04-05T23:24:37.736Z,8.00
2023-04-05T23:29:34.655Z,7.84
2023-04-05T23:34:31.670Z,7.56
2023-04-05T23:39:28.808Z,7.65
2023-04-05T23:44:26.665Z,7.44
2023-04-05T23:49:25.977Z,7.19
2023-04-05T23:54:23.110Z,7.15
2023-04-05T23:59:20.045Z,6.91
